Terminal Aerodrome Forecast
Issued by NWS Green Bay, WI

Home | Current Version | Previous Version | Text Only | Print | Product List | Glossary Off
Versions: 1 2 3 4 5 6 7 8 9 10 11 12 13 14 15 16 17 18 19 20 21 22 23 24 25 26 27 28 29 30

000
FTUS43 KGRB 081500 AAB
TAFGRB
TAF AMD
KGRB 081555Z 0816/0912 32009G15KT P6SM BKN040
      TEMPO 0817/0821 3SM -SHRA BKN025
     FM082100 30009G14KT P6SM BKN050
      TEMPO 0821/0824 3SM -SHRA BKN030
     FM090100 28003KT P6SM SCT050 SCT100=

USA.gov is the U.S. government's official web portal to all federal, state and local government web resources and services.